Aviation Digital Data Service (ADDS)

Output produced by METARs form (2103 UTC 19 April 2015)
found at http://aviationweather.gov/adds/metars/
 
KORF 192102Z 1921/2018 09011KT P6SM SCT035 OVC070 
     TEMPO 1921/1924 3SM -RA BR OVC008 
     FM200000 12009KT 5SM -RA BR OVC008 
     FM200300 18014G23KT 5SM -RA BR OVC005 
     FM201100 20013KT 2SM -DZ BR OVC003 
     FM201500 22012G17KT P6SM BKN015